Time;durP1;ratioP1;P1;durP2;ratioP2;P2;SDS_P1;SDS_P2;PMS_P1;PMS_P2;Temp;Humidity;BMP_temperature;BMP_pressure;BME280_temperature;BME280_humidity;BME280_pressure;Samples;Min_cycle;Max_cycle;Signal;HPM_P1;HPM_P2
2024/02/08 00:02:18;;;;;;;0.60;0.60;;;8.60;99.90;;;;;;5013560;28;20645;-63
2024/02/08 00:04:44;;;;;;;0.50;0.40;;;8.50;99.90;;;;;;5013455;28;20195;-63
2024/02/08 00:07:10;;;;;;;0.55;0.43;;;8.60;99.90;;;;;;5013271;28;20183;-63
2024/02/08 00:09:36;;;;;;;0.40;0.40;;;8.70;99.90;;;;;;5013487;28;20549;-64
2024/02/08 00:12:03;;;;;;;0.60;0.60;;;8.70;99.90;;;;;;5013387;28;20176;-63
2024/02/08 00:14:29;;;;;;;0.40;0.40;;;8.70;99.90;;;;;;5013134;28;20229;-63
2024/02/08 00:16:55;;;;;;;0.68;0.50;;;8.80;99.90;;;;;;5012955;28;20549;-63
2024/02/08 00:19:21;;;;;;;0.40;0.40;;;8.80;99.90;;;;;;5013272;28;20178;-63
2024/02/08 00:21:49;;;;;;;0.30;0.30;;;8.80;99.90;;;;;;5013197;28;20168;-63
2024/02/08 00:24:14;;;;;;;0.52;0.45;;;8.70;99.90;;;;;;5013189;28;20271;-63
2024/02/08 00:26:41;;;;;;;0.40;0.40;;;8.80;99.90;;;;;;5012792;28;20182;-63
2024/02/08 00:29:08;;;;;;;0.38;0.38;;;8.80;99.90;;;;;;5013026;28;20208;-63
2024/02/08 00:31:33;;;;;;;0.40;0.40;;;8.80;99.90;;;;;;5013133;28;20184;-63
2024/02/08 00:33:59;;;;;;;0.40;0.40;;;8.70;99.90;;;;;;5012871;28;20703;-63
2024/02/08 00:36:24;;;;;;;0.37;0.37;;;8.60;99.90;;;;;;5012659;28;20229;-63
2024/02/08 00:38:51;;;;;;;0.50;0.50;;;8.60;99.90;;;;;;5012919;28;20587;-63
2024/02/08 00:41:17;;;;;;;0.30;0.30;;;8.50;99.90;;;;;;5011874;28;20574;-63
2024/02/08 00:43:43;;;;;;;0.40;0.40;;;8.50;99.90;;;;;;5012807;28;20222;-63
2024/02/08 00:46:08;;;;;;;0.40;0.40;;;8.50;99.90;;;;;;5012562;28;20172;-63
2024/02/08 00:48:34;;;;;;;0.87;0.40;;;8.50;99.90;;;;;;5012728;28;20180;-63
2024/02/08 00:51:00;;;;;;;0.53;0.53;;;8.50;99.90;;;;;;5012703;28;20618;-63
2024/02/08 00:53:25;;;;;;;1.47;0.50;;;8.50;99.90;;;;;;5012725;28;20177;-63
2024/02/08 00:55:51;;;;;;;0.60;0.50;;;8.40;99.90;;;;;;5012858;28;20290;-63
2024/02/08 00:58:17;;;;;;;0.70;0.70;;;8.40;99.90;;;;;;5012344;28;20194;-63
2024/02/08 01:00:42;;;;;;;0.53;0.53;;;8.40;99.90;;;;;;5012575;28;20171;-64
2024/02/08 01:03:08;;;;;;;0.53;0.53;;;8.40;99.90;;;;;;5012642;28;20445;-63
2024/02/08 01:05:34;;;;;;;0.50;0.50;;;8.40;99.90;;;;;;5012635;28;20430;-63
2024/02/08 01:08:01;;;;;;;0.70;0.50;;;8.50;99.90;;;;;;5012200;28;20255;-63
2024/02/08 01:10:27;;;;;;;0.45;0.40;;;8.50;99.90;;;;;;5012252;28;20430;-63
2024/02/08 01:12:54;;;;;;;0.73;0.47;;;8.50;99.90;;;;;;5012314;28;20186;-63
2024/02/08 01:15:22;;;;;;;0.40;0.40;;;8.60;99.90;;;;;;5012328;28;20214;-63
2024/02/08 01:17:51;;;;;;;1.20;0.70;;;8.60;99.90;;;;;;5012008;28;20171;-63
2024/02/08 01:20:27;;;;;;;0.60;0.50;;;8.70;99.90;;;;;;5012319;28;20720;-63
2024/02/08 01:22:54;;;;;;;0.63;0.63;;;8.70;99.90;;;;;;5012190;28;20350;-63
2024/02/08 01:25:20;;;;;;;0.73;0.60;;;8.60;99.90;;;;;;5012089;28;20601;-63
2024/02/08 01:27:47;;;;;;;2.25;0.60;;;8.50;99.90;;;;;;5011991;28;20596;-63
2024/02/08 01:30:15;;;;;;;0.60;0.50;;;8.40;99.90;;;;;;5012101;28;20230;-63
2024/02/08 01:32:41;;;;;;;0.68;0.60;;;8.50;99.90;;;;;;5012129;28;20406;-63
2024/02/08 01:35:10;;;;;;;3.60;0.90;;;8.50;99.90;;;;;;5011732;28;20215;-63
2024/02/08 01:37:38;;;;;;;0.50;0.50;;;8.40;99.90;;;;;;5011516;28;20176;-63
2024/02/08 01:40:16;;;;;;;1.05;0.40;;;8.40;99.90;;;;;;5011938;28;20218;-63
2024/02/08 01:42:48;;;;;;;1.58;0.55;;;8.50;99.90;;;;;;5012229;28;20222;-63
2024/02/08 01:45:31;;;;;;;0.55;0.55;;;8.50;99.90;;;;;;5011935;28;20195;-63
2024/02/08 01:48:05;;;;;;;0.50;0.40;;;8.50;99.90;;;;;;5011576;28;20597;-63
2024/02/08 01:50:35;;;;;;;0.50;0.40;;;8.60;99.90;;;;;;5012018;28;20183;-63
2024/02/08 01:53:02;;;;;;;0.60;0.60;;;8.60;99.90;;;;;;5015038;28;20168;-63
2024/02/08 01:55:33;;;;;;;0.50;0.50;;;8.50;99.90;;;;;;5015810;28;20301;-63
2024/02/08 01:58:04;;;;;;;0.70;0.70;;;8.50;99.90;;;;;;5016028;28;20533;-63
2024/02/08 02:00:36;;;;;;;0.70;0.55;;;8.50;99.90;;;;;;5015425;28;20604;-63
2024/02/08 02:03:03;;;;;;;1.00;0.70;;;8.60;99.90;;;;;;5015882;28;20163;-64
2024/02/08 02:05:29;;;;;;;0.50;0.50;;;8.60;99.90;;;;;;5015725;28;20200;-64
2024/02/08 02:07:56;;;;;;;0.50;0.50;;;8.60;99.90;;;;;;5015445;28;20233;-63
2024/02/08 02:10:29;;;;;;;0.50;0.50;;;8.50;99.90;;;;;;5015539;28;20410;-63
2024/02/08 02:12:59;;;;;;;0.50;0.45;;;8.50;99.90;;;;;;5015507;28;20214;-64
2024/02/08 02:15:31;;;;;;;0.80;0.77;;;8.60;99.90;;;;;;5015524;28;20203;-63
2024/02/08 02:17:59;;;;;;;0.68;0.60;;;8.60;99.90;;;;;;5015539;28;20191;-63
2024/02/08 02:20:29;;;;;;;0.50;0.50;;;8.60;99.90;;;;;;5015596;28;20176;-63
2024/02/08 02:22:57;;;;;;;0.50;0.50;;;8.70;99.90;;;;;;5015595;28;20258;-64
2024/02/08 02:25:25;;;;;;;0.50;0.40;;;8.70;99.90;;;;;;5015351;28;20575;-63
2024/02/08 02:27:55;;;;;;;0.68;0.65;;;8.70;99.90;;;;;;5015010;28;20182;-64
2024/02/08 02:30:22;;;;;;;0.50;0.50;;;8.60;99.90;;;;;;5015326;28;20254;-63
2024/02/08 02:32:52;;;;;;;0.88;0.80;;;8.60;99.90;;;;;;5015382;28;20677;-63
2024/02/08 02:35:18;;;;;;;0.43;0.43;;;8.60;99.90;;;;;;5014912;28;20222;-63
2024/02/08 02:37:49;;;;;;;0.70;0.70;;;8.60;99.90;;;;;;5014733;28;20179;-63
2024/02/08 02:40:24;;;;;;;0.75;0.70;;;8.60;99.90;;;;;;5015033;28;20190;-63
2024/02/08 02:42:51;;;;;;;0.82;0.60;;;8.50;99.90;;;;;;5015030;28;20179;-63
2024/02/08 02:45:23;;;;;;;0.70;0.70;;;8.50;99.90;;;;;;5014888;28;20195;-63
2024/02/08 02:47:53;;;;;;;0.75;0.65;;;8.50;99.90;;;;;;5014751;28;20184;-63
2024/02/08 02:50:20;;;;;;;0.60;0.60;;;8.40;99.90;;;;;;5015379;28;20175;-63
2024/02/08 02:52:46;;;;;;;0.90;0.70;;;8.30;99.90;;;;;;5014794;28;20191;-63
2024/02/08 02:55:12;;;;;;;0.93;0.50;;;8.20;99.90;;;;;;5014746;28;20207;-63
2024/02/08 02:57:41;;;;;;;1.23;0.88;;;8.20;99.90;;;;;;5014589;28;20195;-63
2024/02/08 03:00:24;;;;;;;1.67;0.70;;;8.40;99.90;;;;;;5014820;28;20206;-63
2024/02/08 03:02:57;;;;;;;0.93;0.63;;;8.50;99.90;;;;;;5014079;28;20549;-63
2024/02/08 03:05:24;;;;;;;0.68;0.60;;;8.50;99.90;;;;;;5014500;28;20230;-63
2024/02/08 03:07:51;;;;;;;1.20;0.60;;;8.50;99.90;;;;;;5014312;28;20179;-63
2024/02/08 03:10:19;;;;;;;0.60;0.60;;;8.40;99.90;;;;;;5014566;28;20174;-63
2024/02/08 03:12:49;;;;;;;0.60;0.60;;;8.30;99.90;;;;;;5014396;28;20251;-63
2024/02/08 03:15:16;;;;;;;0.60;0.60;;;8.20;99.90;;;;;;5014234;28;20199;-63
2024/02/08 03:17:43;;;;;;;0.70;0.40;;;8.10;99.90;;;;;;5014044;28;20258;-63
2024/02/08 03:20:11;;;;;;;0.40;0.40;;;8.10;99.90;;;;;;5014587;28;20226;-63
2024/02/08 03:22:37;;;;;;;0.50;0.50;;;8.10;99.90;;;;;;5014491;28;20168;-63
2024/02/08 03:25:04;;;;;;;0.50;0.50;;;8.00;99.90;;;;;;5013021;28;20249;-63
2024/02/08 03:27:33;;;;;;;0.50;0.50;;;8.10;99.90;;;;;;5013786;28;20246;-63
2024/02/08 03:30:02;;;;;;;0.68;0.68;;;8.20;99.90;;;;;;5014510;28;20172;-63
2024/02/08 03:32:30;;;;;;;0.50;0.50;;;8.20;99.90;;;;;;5013945;28;20203;-63
2024/02/08 03:34:56;;;;;;;0.40;0.40;;;8.20;99.90;;;;;;5087370;22;20233;-65
2024/02/08 03:37:22;;;;;;;1.05;0.73;;;8.10;99.90;;;;;;5072793;28;20567;-65
2024/02/08 03:39:48;;;;;;;4.50;0.85;;;8.10;99.90;;;;;;5073830;28;20178;-64
2024/02/08 03:42:16;;;;;;;0.40;0.40;;;8.10;99.90;;;;;;5073547;28;20166;-65
2024/02/08 03:44:43;;;;;;;0.65;0.65;;;8.20;99.90;;;;;;5073645;28;20421;-65
2024/02/08 03:47:09;;;;;;;0.47;0.47;;;8.30;99.90;;;;;;5073097;28;20169;-65
2024/02/08 03:49:35;;;;;;;0.50;0.50;;;8.10;99.90;;;;;;5073208;28;20158;-65
2024/02/08 03:52:02;;;;;;;0.50;0.50;;;8.10;99.90;;;;;;5072230;28;20404;-64
2024/02/08 03:54:30;;;;;;;3.25;0.60;;;8.10;99.90;;;;;;5073260;28;20727;-65
2024/02/08 03:56:59;;;;;;;0.40;0.40;;;8.10;99.90;;;;;;5073008;28;20186;-65
2024/02/08 03:59:26;;;;;;;0.50;0.50;;;8.10;99.90;;;;;;5073207;28;20174;-65
2024/02/08 04:02:05;;;;;;;0.90;0.70;;;8.00;99.90;;;;;;5073326;28;20174;-65
2024/02/08 04:04:59;;;;;;;0.63;0.63;;;8.00;99.90;;;;;;5071708;28;20197;-65
2024/02/08 04:10:29;;;;;;;0.70;0.60;;;8.00;99.90;;;;;;5073136;28;20218;-65
2024/02/08 04:53:57;;;;;;;1.17;1.08;;;7.90;99.90;;;;;;5072425;28;20231;-65
2024/02/08 04:56:23;;;;;;;0.90;0.90;;;8.00;99.90;;;;;;5071688;28;20575;-65
2024/02/08 04:58:50;;;;;;;2.07;0.93;;;8.00;99.90;;;;;;5072047;28;20177;-65
2024/02/08 05:01:17;;;;;;;0.80;0.80;;;8.00;99.90;;;;;;5072181;28;20400;-64
2024/02/08 05:03:43;;;;;;;0.93;0.90;;;8.00;99.90;;;;;;5072102;28;20589;-65
2024/02/08 05:06:21;;;;;;;1.35;1.25;;;8.00;99.90;;;;;;5071671;28;20283;-65
2024/02/08 05:08:48;;;;;;;0.70;0.70;;;8.00;99.90;;;;;;5072117;28;20181;-65
2024/02/08 05:11:14;;;;;;;0.85;0.85;;;8.10;99.90;;;;;;5071783;28;20182;-65
2024/02/08 05:13:50;;;;;;;0.70;0.70;;;8.20;99.90;;;;;;5072178;28;20658;-65
2024/02/08 05:16:16;;;;;;;0.77;0.77;;;8.20;99.90;;;;;;5070234;28;20697;-65
2024/02/08 05:18:43;;;;;;;1.05;0.95;;;8.30;99.90;;;;;;5071849;28;20166;-64
2024/02/08 05:21:16;;;;;;;0.85;0.82;;;8.20;99.90;;;;;;5071803;28;20170;-65
2024/02/08 05:23:43;;;;;;;0.63;0.60;;;8.20;99.90;;;;;;5071791;28;20178;-65
2024/02/08 05:26:19;;;;;;;0.60;0.60;;;8.20;99.90;;;;;;5071245;28;20608;-65
2024/02/08 05:28:48;;;;;;;0.85;0.60;;;8.20;99.90;;;;;;5071870;28;20744;-65
2024/02/08 05:31:18;;;;;;;0.80;0.80;;;8.10;99.90;;;;;;5071800;28;20712;-65
2024/02/08 05:33:44;;;;;;;0.60;0.60;;;8.00;99.90;;;;;;5071685;28;20606;-65
2024/02/08 05:36:17;;;;;;;0.60;0.60;;;8.10;99.90;;;;;;5071061;28;20308;-65
2024/02/08 05:38:45;;;;;;;0.52;0.52;;;8.20;99.90;;;;;;5072103;28;20187;-64
2024/02/08 05:41:15;;;;;;;0.70;0.57;;;8.10;99.90;;;;;;5071469;28;20179;-65
2024/02/08 05:43:45;;;;;;;0.95;0.80;;;8.00;99.90;;;;;;5071791;28;20257;-65
2024/02/08 05:46:24;;;;;;;0.60;0.60;;;8.00;99.90;;;;;;5071275;28;20575;-64
2024/02/08 05:49:04;;;;;;;0.50;0.50;;;8.00;99.90;;;;;;5071515;28;20181;-65
2024/02/08 05:51:33;;;;;;;0.70;0.70;;;7.90;99.90;;;;;;5071443;28;20173;-65
2024/02/08 05:54:02;;;;;;;0.50;0.50;;;7.80;99.90;;;;;;5071451;28;20543;-65
2024/02/08 05:56:33;;;;;;;0.60;0.60;;;7.80;99.90;;;;;;5071011;28;20189;-64
2024/02/08 05:59:05;;;;;;;0.50;0.50;;;7.80;99.90;;;;;;5071273;28;20183;-64
2024/02/08 06:01:36;;;;;;;0.60;0.60;;;7.80;99.90;;;;;;5071649;28;20177;-65
2024/02/08 06:04:03;;;;;;;0.60;0.60;;;7.70;99.90;;;;;;5069973;28;20177;-65
2024/02/08 06:06:37;;;;;;;0.60;0.60;;;7.70;99.90;;;;;;5071081;28;20169;-65
2024/02/08 06:09:16;;;;;;;0.52;0.52;;;7.70;99.90;;;;;;5071332;28;20534;-65
2024/02/08 06:11:43;;;;;;;0.60;0.60;;;7.80;99.90;;;;;;5071161;28;20181;-65
2024/02/08 06:14:22;;;;;;;0.47;0.47;;;7.80;99.90;;;;;;5071263;28;20170;-64
2024/02/08 06:16:53;;;;;;;0.50;0.50;;;7.80;99.90;;;;;;5070969;28;20666;-65
2024/02/08 06:19:21;;;;;;;0.57;0.57;;;7.70;99.90;;;;;;5071410;28;20173;-65
2024/02/08 06:21:47;;;;;;;0.52;0.52;;;7.70;99.90;;;;;;5071189;28;20173;-64
2024/02/08 06:26:55;;;;;;;2.83;0.98;;;7.60;99.90;;;;;;5071077;28;20700;-65
2024/02/08 06:29:26;;;;;;;0.50;0.50;;;7.60;99.90;;;;;;5071250;28;20177;-65
2024/02/08 06:32:00;;;;;;;3.33;1.75;;;7.80;99.90;;;;;;5071193;28;20184;-65
2024/02/08 06:34:42;;;;;;;0.77;0.50;;;7.90;99.90;;;;;;5070852;28;20207;-65
2024/02/08 06:37:29;;;;;;;1.00;0.60;;;8.00;99.90;;;;;;5071015;28;20204;-65
2024/02/08 06:39:58;;;;;;;2.00;1.15;;;8.00;99.90;;;;;;5074884;28;20227;-64
2024/02/08 06:43:25;;;;;;;1.00;0.90;;;8.00;99.90;;;;;;5075213;28;20196;-65
2024/02/08 06:45:25;;;;;;;0.55;0.55;;;7.90;99.90;;;;;;5074211;28;20288;-65
2024/02/08 06:48:32;;;;;;;0.40;0.40;;;8.00;99.90;;;;;;5074383;28;20200;-64
2024/02/08 07:37:25;;;;;;;0.40;0.40;;;8.10;99.90;;;;;;5053418;28;20223;-65
2024/02/08 07:40:00;;;;;;;0.40;0.40;;;8.00;99.90;;;;;;5053662;28;20582;-65
2024/02/08 07:42:29;;;;;;;0.40;0.40;;;8.00;99.90;;;;;;5053692;28;20231;-65
2024/02/08 07:45:12;;;;;;;0.40;0.40;;;8.00;99.90;;;;;;5053472;28;20730;-66
2024/02/08 07:47:39;;;;;;;0.40;0.40;;;8.10;99.90;;;;;;5053164;28;20281;-65
2024/02/08 07:50:07;;;;;;;0.43;0.43;;;8.10;99.90;;;;;;5052846;28;20228;-64
2024/02/08 07:52:45;;;;;;;0.50;0.40;;;8.10;99.90;;;;;;5053373;28;20162;-65
2024/02/08 07:55:20;;;;;;;0.40;0.40;;;8.00;99.90;;;;;;5053205;28;20213;-64
2024/02/08 07:57:57;;;;;;;0.43;0.43;;;7.90;99.90;;;;;;5053028;28;20170;-65
2024/02/08 08:00:41;;;;;;;0.43;0.40;;;8.00;99.90;;;;;;5053472;28;20185;-64
2024/02/08 08:03:08;;;;;;;0.50;0.50;;;8.00;99.90;;;;;;5053249;28;20182;-64
2024/02/08 08:05:41;;;;;;;0.50;0.50;;;8.00;99.90;;;;;;5053067;28;20623;-65
2024/02/08 08:08:15;;;;;;;0.40;0.40;;;8.20;99.90;;;;;;5052769;28;20186;-65
2024/02/08 08:10:41;;;;;;;0.50;0.50;;;8.40;99.90;;;;;;5053284;28;20638;-65
2024/02/08 08:13:07;;;;;;;0.40;0.40;;;8.40;99.90;;;;;;5052980;28;20170;-65
2024/02/08 08:15:49;;;;;;;0.40;0.40;;;8.40;99.90;;;;;;5052964;28;20267;-65
2024/02/08 08:18:29;;;;;;;0.40;0.40;;;8.30;99.90;;;;;;5052735;28;20178;-65
2024/02/08 08:20:58;;;;;;;0.52;0.40;;;8.20;99.90;;;;;;5052701;28;20239;-64
2024/02/08 08:23:27;;;;;;;0.50;0.50;;;8.30;99.90;;;;;;5052811;28;20193;-65
2024/02/08 08:29:02;;;;;;;0.80;0.40;;;8.40;99.90;;;;;;5047967;28;20190;-65
2024/02/08 08:31:46;;;;;;;0.47;0.40;;;8.50;99.90;;;;;;5052557;28;20655;-64
2024/02/08 08:37:02;;;;;;;0.85;0.50;;;8.80;99.90;;;;;;5052683;28;20301;-65
2024/02/08 08:39:46;;;;;;;0.77;0.47;;;9.00;99.90;;;;;;5052413;28;20170;-65
2024/02/08 08:42:18;;;;;;;0.60;0.60;;;9.00;99.90;;;;;;5052511;28;20586;-64
2024/02/08 08:44:49;;;;;;;0.40;0.40;;;8.90;99.90;;;;;;5052413;28;20197;-65
2024/02/08 08:47:24;;;;;;;0.73;0.40;;;8.90;99.90;;;;;;5052174;28;20586;-65
2024/02/08 08:49:50;;;;;;;0.50;0.40;;;8.90;99.90;;;;;;5052187;28;20174;-65
2024/02/08 08:52:26;;;;;;;0.30;0.30;;;8.70;99.90;;;;;;5052304;28;20602;-64
2024/02/08 08:55:11;;;;;;;0.40;0.40;;;8.70;99.90;;;;;;5052155;28;20186;-65
2024/02/08 08:57:40;;;;;;;0.60;0.60;;;8.90;99.90;;;;;;5051886;28;20255;-64
2024/02/08 09:00:09;;;;;;;0.50;0.50;;;8.90;99.90;;;;;;5052177;28;20297;-65
2024/02/08 09:02:42;;;;;;;0.40;0.40;;;8.90;99.90;;;;;;5051168;28;20182;-65
2024/02/08 09:05:17;;;;;;;0.30;0.30;;;8.80;99.90;;;;;;5052131;28;20198;-65
2024/02/08 09:07:45;;;;;;;0.40;0.40;;;8.80;99.90;;;;;;5051942;28;20564;-65
2024/02/08 09:10:13;;;;;;;0.30;0.30;;;8.90;99.90;;;;;;5051985;28;20365;-65
2024/02/08 09:12:58;;;;;;;0.40;0.40;;;9.10;99.90;;;;;;5051945;28;20588;-65
2024/02/08 09:15:26;;;;;;;0.40;0.40;;;9.10;99.90;;;;;;5051973;28;20213;-65
2024/02/08 09:17:53;;;;;;;2.35;0.40;;;9.20;99.90;;;;;;5051616;28;20192;-65
2024/02/08 09:20:28;;;;;;;0.30;0.30;;;9.20;99.90;;;;;;5051709;28;20228;-65
2024/02/08 09:22:55;;;;;;;0.30;0.30;;;9.30;99.90;;;;;;5051747;28;20212;-65
2024/02/08 09:25:25;;;;;;;0.40;0.40;;;9.10;99.90;;;;;;5051467;28;20190;-65
2024/02/08 09:27:56;;;;;;;0.30;0.30;;;9.20;99.90;;;;;;5064367;28;20206;-64
2024/02/08 09:30:38;;;;;;;0.30;0.30;;;9.40;99.90;;;;;;5083541;28;20173;-65
2024/02/08 09:33:29;;;;;;;0.57;0.57;;;9.40;99.90;;;;;;5092046;28;20176;-65
2024/02/08 09:36:02;;;;;;;0.65;0.60;;;9.40;99.90;;;;;;5074491;23;20238;-66
2024/02/08 09:38:50;;;;;;;16.25;8.75;;;9.50;99.90;;;;;;5042356;28;20643;-65
2024/02/08 09:41:34;;;;;;;3.83;2.65;;;9.50;99.90;;;;;;5051001;28;20217;-66
2024/02/08 09:44:06;;;;;;;14.65;10.55;;;9.60;99.90;;;;;;5051557;28;20201;-65
2024/02/08 09:49:17;;;;;;;1.15;1.05;;;9.60;99.90;;;;;;5062838;28;20650;-66
2024/02/08 09:51:53;;;;;;;4.40;1.33;;;9.50;99.90;;;;;;5071415;28;20177;-66
2024/02/08 09:54:31;;;;;;;0.40;0.40;;;9.50;99.90;;;;;;5071183;28;20218;-67
2024/02/08 09:57:23;;;;;;;4.07;1.95;;;9.30;99.90;;;;;;5071034;28;20624;-66
2024/02/08 10:00:10;;;;;;;0.60;0.60;;;9.20;99.90;;;;;;5071218;28;20165;-66
2024/02/08 10:02:41;;;;;;;0.30;0.30;;;9.20;99.90;;;;;;5071417;28;20149;-66
2024/02/08 10:08:09;;;;;;;0.45;0.40;;;9.30;99.90;;;;;;5047263;28;20201;-66
2024/02/08 10:10:43;;;;;;;5.10;1.80;;;9.40;99.90;;;;;;5071334;28;20189;-66
2024/02/08 10:13:25;;;;;;;1.30;1.20;;;9.60;99.90;;;;;;5072922;28;20165;-66
2024/02/08 10:15:55;;;;;;;1.17;0.98;;;9.80;99.90;;;;;;5060825;28;20237;-65
2024/02/08 10:18:33;;;;;;;1.95;1.15;;;9.90;99.90;;;;;;5053701;28;20173;-66
2024/02/08 10:21:12;;;;;;;0.57;0.57;;;10.10;99.90;;;;;;5055113;28;20177;-66
2024/02/08 10:23:48;;;;;;;0.52;0.52;;;10.10;99.90;;;;;;5054752;28;20204;-66
2024/02/08 10:26:22;;;;;;;0.40;0.40;;;10.20;99.90;;;;;;5062910;28;20682;-65
2024/02/08 10:28:53;;;;;;;0.40;0.40;;;10.20;99.90;;;;;;5068189;28;20310;-65
2024/02/08 10:31:27;;;;;;;0.60;0.50;;;10.20;99.90;;;;;;5075073;28;20188;-65
2024/02/08 10:34:23;;;;;;;0.82;0.70;;;10.10;99.90;;;;;;5074854;28;20184;-65
2024/02/08 10:36:48;;;;;;;1.13;0.60;;;10.10;99.90;;;;;;5074402;28;20256;-65
2024/02/08 10:39:26;;;;;;;1.20;0.70;;;10.10;99.90;;;;;;5074806;28;20197;-65
2024/02/08 10:44:24;;;;;;;1.85;0.85;;;10.10;99.90;;;;;;5066264;28;20248;-65
2024/02/08 10:47:06;;;;;;;1.75;1.50;;;10.20;99.90;;;;;;5045046;28;20199;-65
2024/02/08 10:49:42;;;;;;;1.75;1.42;;;10.30;99.90;;;;;;5034754;28;20258;-65
2024/02/08 10:52:11;;;;;;;1.70;1.40;;;10.50;99.90;;;;;;5043379;28;20185;-65
2024/02/08 10:54:42;;;;;;;16.85;6.40;;;10.70;99.90;;;;;;5053777;28;20417;-65
2024/02/08 10:57:33;;;;;;;4.10;2.47;;;10.90;99.90;;;;;;5043937;28;20221;-66
2024/02/08 10:59:59;;;;;;;10.90;1.97;;;10.90;99.90;;;;;;5054079;28;20720;-65
2024/02/08 11:02:48;;;;;;;2.40;1.20;;;10.80;99.90;;;;;;5064057;28;20405;-65
2024/02/08 11:05:34;;;;;;;2.60;1.60;;;10.80;99.90;;;;;;5073958;28;20408;-65
2024/02/08 11:08:01;;;;;;;2.47;1.90;;;10.70;99.90;;;;;;5074034;28;20403;-65
2024/02/08 11:10:32;;;;;;;4.53;2.90;;;10.70;99.90;;;;;;5074172;28;20196;-65
2024/02/08 11:13:10;;;;;;;2.70;1.80;;;10.70;99.90;;;;;;5074324;28;20434;-65
2024/02/08 11:15:40;;;;;;;7.30;2.33;;;10.50;99.90;;;;;;5074011;28;20205;-65
2024/02/08 11:18:25;;;;;;;7.63;3.08;;;10.20;99.90;;;;;;5073845;28;20400;-64
2024/02/08 11:21:04;;;;;;;2.72;2.05;;;10.20;99.90;;;;;;5074130;28;20524;-65
2024/02/08 11:23:31;;;;;;;6.82;2.47;;;10.20;99.90;;;;;;5073989;28;20180;-65
2024/02/08 11:26:06;;;;;;;4.60;1.60;;;10.30;99.90;;;;;;5072817;28;20258;-66
2024/02/08 11:28:44;;;;;;;3.10;2.10;;;10.30;99.90;;;;;;5074129;28;20607;-65
2024/02/08 11:31:13;;;;;;;3.55;2.35;;;10.10;99.90;;;;;;5074161;28;20169;-65
2024/02/08 11:33:42;;;;;;;3.33;1.13;;;9.90;99.90;;;;;;5073836;28;20196;-65
2024/02/08 11:36:21;;;;;;;10.95;5.05;;;9.80;99.90;;;;;;5073065;28;20213;-66
2024/02/08 11:38:57;;;;;;;5.90;2.45;;;9.70;99.90;;;;;;5073719;28;20169;-65
2024/02/08 11:41:25;;;;;;;4.22;1.77;;;9.80;99.90;;;;;;5073621;28;20177;-65
2024/02/08 11:44:05;;;;;;;8.20;5.00;;;9.80;99.90;;;;;;5073585;28;20174;-65
2024/02/08 11:46:37;;;;;;;8.20;2.67;;;9.90;99.90;;;;;;5073093;28;20221;-65
2024/02/08 11:49:31;;;;;;;4.70;2.72;;;10.00;99.90;;;;;;5073768;28;20180;-65
2024/02/08 11:52:07;;;;;;;9.23;2.28;;;10.00;99.90;;;;;;5073504;28;20189;-65
2024/02/08 11:54:37;;;;;;;7.78;3.05;;;10.00;99.90;;;;;;5073453;28;20223;-65
2024/02/08 11:57:05;;;;;;;7.03;1.80;;;10.10;99.90;;;;;;5072895;28;20204;-65
2024/02/08 11:59:36;;;;;;;15.27;3.97;;;10.10;99.90;;;;;;5073423;28;20185;-66
2024/02/08 12:02:11;;;;;;;10.02;4.65;;;10.10;99.90;;;;;;5073126;28;20173;-65
2024/02/08 12:04:37;;;;;;;14.93;6.03;;;10.10;99.90;;;;;;5073197;28;20172;-65
2024/02/08 12:07:04;;;;;;;4.22;2.97;;;10.10;99.90;;;;;;5059882;28;20214;-65
2024/02/08 12:09:31;;;;;;;8.57;5.33;;;10.20;99.90;;;;;;5051506;28;20186;-65
2024/02/08 12:11:58;;;;;;;7.07;3.50;;;10.30;99.90;;;;;;5052966;28;20440;-65
2024/02/08 12:14:27;;;;;;;6.78;3.25;;;10.40;99.90;;;;;;5052724;28;20455;-65
2024/02/08 12:16:57;;;;;;;11.27;2.60;;;10.50;99.90;;;;;;5052322;28;20206;-66
2024/02/08 12:19:24;;;;;;;9.57;2.97;;;10.70;99.90;;;;;;5052736;28;20549;-66
2024/02/08 12:21:57;;;;;;;3.10;2.78;;;10.80;99.90;;;;;;5052670;28;20167;-66
2024/02/08 12:24:24;;;;;;;6.28;2.30;;;10.90;99.90;;;;;;5062205;28;20166;-65
2024/02/08 12:26:55;;;;;;;12.50;5.57;;;11.00;99.90;;;;;;5072213;28;20256;-65
2024/02/08 12:29:25;;;;;;;10.80;5.33;;;10.90;99.90;;;;;;5072687;28;20414;-65
2024/02/08 12:31:54;;;;;;;8.47;4.07;;;11.00;99.90;;;;;;5070866;28;20418;-65
2024/02/08 12:34:31;;;;;;;10.13;7.30;;;11.10;99.90;;;;;;5063907;28;20470;-65
2024/02/08 12:37:05;;;;;;;7.40;2.83;;;11.20;99.90;;;;;;5070847;28;20490;-65
2024/02/08 12:39:41;;;;;;;12.37;7.70;;;11.20;99.90;;;;;;5072707;28;20483;-65
2024/02/08 12:42:07;;;;;;;4.67;3.00;;;11.10;99.90;;;;;;5072481;28;20468;-65
2024/02/08 12:44:34;;;;;;;4.57;3.00;;;11.10;99.90;;;;;;5072357;28;20419;-66
2024/02/08 12:47:01;;;;;;;5.90;2.00;;;11.30;99.90;;;;;;5071903;28;20436;-65
2024/02/08 12:49:27;;;;;;;8.47;2.10;;;11.50;99.90;;;;;;5072409;28;20419;-65
2024/02/08 12:51:59;;;;;;;5.50;3.40;;;11.30;99.90;;;;;;5072251;28;20420;-65
2024/02/08 12:54:26;;;;;;;4.50;2.80;;;11.10;99.90;;;;;;5072387;28;20770;-65
2024/02/08 12:57:07;;;;;;;8.17;3.33;;;11.10;99.90;;;;;;5072203;28;20524;-66
2024/02/08 12:59:37;;;;;;;5.07;2.87;;;11.30;99.90;;;;;;5072010;28;20773;-66
2024/02/08 13:02:08;;;;;;;9.93;4.83;;;11.50;99.90;;;;;;5072236;28;20404;-65
2024/02/08 13:04:43;;;;;;;10.87;2.70;;;11.50;99.90;;;;;;5071964;28;20919;-66
2024/02/08 13:07:18;;;;;;;19.20;4.40;;;11.60;99.90;;;;;;5071597;28;20510;-65
2024/02/08 13:09:46;;;;;;;6.73;2.63;;;11.70;99.90;;;;;;5071938;28;20427;-66
2024/02/08 13:12:20;;;;;;;4.03;2.27;;;11.70;99.90;;;;;;5071858;28;21061;-65
2024/02/08 13:14:48;;;;;;;5.77;2.80;;;11.70;99.90;;;;;;5071969;28;20395;-65
2024/02/08 13:17:25;;;;;;;8.67;3.43;;;11.80;99.90;;;;;;5071411;28;20460;-65
2024/02/08 13:19:55;;;;;;;7.47;2.87;;;11.90;99.90;;;;;;5071917;28;20506;-65
2024/02/08 13:22:24;;;;;;;15.70;9.67;;;12.00;99.90;;;;;;5071760;28;20407;-65
2024/02/08 13:24:52;;;;;;;8.33;3.03;;;11.90;99.90;;;;;;5072020;28;20830;-66
2024/02/08 13:27:24;;;;;;;8.23;4.67;;;11.70;99.90;;;;;;5071273;28;20427;-65
2024/02/08 13:29:53;;;;;;;7.07;3.40;;;11.60;99.90;;;;;;5071740;28;20416;-66
2024/02/08 13:32:25;;;;;;;11.60;4.20;;;11.50;99.90;;;;;;5071675;28;20411;-65
2024/02/08 13:34:54;;;;;;;6.33;2.77;;;11.50;99.90;;;;;;5071523;28;20411;-65
2024/02/08 13:37:22;;;;;;;11.07;2.50;;;11.50;99.90;;;;;;5071170;28;20578;-65
2024/02/08 13:39:50;;;;;;;18.47;10.50;;;11.40;99.90;;;;;;5071551;28;20972;-65
2024/02/08 13:42:19;;;;;;;8.93;2.87;;;11.20;99.90;;;;;;5071573;28;20399;-65
2024/02/08 13:44:45;;;;;;;17.67;3.93;;;11.10;99.90;;;;;;5071532;28;20927;-65
2024/02/08 13:47:12;;;;;;;23.80;9.33;;;11.00;99.90;;;;;;5070692;28;20427;-65
2024/02/08 13:49:37;;;;;;;13.00;5.87;;;11.00;99.90;;;;;;5071475;28;20439;-65
2024/02/08 13:52:03;;;;;;;7.87;2.40;;;10.90;99.90;;;;;;5071384;28;20439;-65
2024/02/08 13:54:31;;;;;;;6.57;1.83;;;10.90;99.90;;;;;;5071376;28;20408;-66
2024/02/08 13:57:00;;;;;;;7.80;3.03;;;10.90;99.90;;;;;;5071053;28;20208;-66
2024/02/08 13:59:27;;;;;;;9.57;2.50;;;10.90;99.90;;;;;;5071347;28;20395;-65
2024/02/08 14:01:52;;;;;;;8.50;3.17;;;10.90;99.90;;;;;;5071287;28;20411;-65
2024/02/08 14:04:22;;;;;;;11.90;2.70;;;11.00;99.90;;;;;;5071626;28;20780;-65
2024/02/08 14:06:55;;;;;;;12.00;2.60;;;10.90;99.90;;;;;;5071094;28;20440;-66
2024/02/08 14:09:23;;;;;;;6.67;3.00;;;11.00;99.90;;;;;;5071409;28;20450;-65
2024/02/08 14:11:55;;;;;;;8.30;2.87;;;10.90;99.90;;;;;;5071145;28;20974;-66
2024/02/08 14:14:30;;;;;;;8.97;2.20;;;10.90;99.90;;;;;;5071196;28;20404;-65
2024/02/08 14:16:56;;;;;;;6.53;2.40;;;10.80;99.90;;;;;;5071097;28;20454;-66
2024/02/08 14:19:33;;;;;;;8.23;2.67;;;10.70;99.90;;;;;;5071250;28;20395;-65
2024/02/08 14:22:06;;;;;;;4.17;2.43;;;10.80;99.90;;;;;;5071259;28;20403;-65
2024/02/08 14:24:42;;;;;;;9.80;3.20;;;10.80;99.90;;;;;;5071635;28;20399;-65
2024/02/08 14:27:10;;;;;;;4.33;3.07;;;10.90;99.90;;;;;;5070743;28;20920;-65
2024/02/08 14:29:36;;;;;;;8.00;3.70;;;11.00;99.90;;;;;;5071297;28;20459;-65
2024/02/08 14:32:08;;;;;;;11.13;3.20;;;11.10;99.90;;;;;;5071038;28;20461;-65
2024/02/08 14:34:37;;;;;;;8.30;3.30;;;11.20;99.90;;;;;;5071272;28;20260;-65
2024/02/08 14:37:07;;;;;;;10.73;4.40;;;11.30;99.90;;;;;;5070477;28;20463;-66
2024/02/08 14:39:34;;;;;;;7.97;2.67;;;11.40;99.90;;;;;;5071345;28;20447;-65
2024/02/08 14:42:13;;;;;;;6.87;3.20;;;11.40;99.90;;;;;;5070902;28;20403;-65
2024/02/08 14:44:44;;;;;;;3.80;2.97;;;11.40;99.90;;;;;;5070874;28;20940;-65
2024/02/08 14:47:31;;;;;;;10.50;3.10;;;11.50;99.90;;;;;;5070696;28;20953;-65
2024/02/08 14:49:59;;;;;;;11.97;3.10;;;11.50;99.90;;;;;;5070770;28;20412;-65
2024/02/08 14:52:34;;;;;;;13.53;3.33;;;11.50;99.90;;;;;;5070986;28;20412;-65
2024/02/08 14:55:19;;;;;;;10.87;2.83;;;11.40;99.90;;;;;;5070692;28;20407;-65
2024/02/08 14:57:52;;;;;;;9.77;3.10;;;11.20;99.90;;;;;;5070581;28;20408;-65
2024/02/08 15:03:07;;;;;;;7.60;2.90;;;11.20;99.90;;;;;;5074444;28;20398;-65
2024/02/08 15:05:48;;;;;;;13.13;2.33;;;11.10;99.90;;;;;;5074246;28;20419;-65